createdAt,value
2018-12-03T08:53:20.127Z,64.93
2018-12-03T09:32:06.342Z,80.07
2018-12-03T10:13:44.875Z,58.60
2018-12-03T10:16:15.828Z,56.90
2018-12-03T10:18:48.130Z,50.70
2018-12-03T10:21:17.504Z,53.50
2018-12-03T10:23:46.843Z,56.87
2018-12-03T10:29:25.632Z,59.80
2018-12-03T10:31:53.991Z,67.83
2018-12-03T10:39:39.393Z,52.60
2018-12-03T10:42:12.825Z,50.63
2018-12-03T10:44:41.848Z,45.00
2018-12-03T10:47:11.933Z,76.37
2018-12-03T10:49:44.207Z,65.50
2018-12-03T10:52:31.296Z,60.80
2018-12-03T10:54:59.670Z,54.67
2018-12-03T10:57:32.687Z,59.30
2018-12-03T11:00:04.221Z,63.23
2018-12-03T11:02:39.676Z,61.60
2018-12-03T11:05:14.312Z,58.83
2018-12-03T11:07:43.432Z,68.00
2018-12-03T11:10:13.332Z,53.30
2018-12-03T11:12:46.208Z,42.83
2018-12-03T11:15:16.807Z,43.73
2018-12-03T11:20:22.912Z,46.57
2018-12-03T11:25:37.735Z,5.80
2018-12-03T11:28:12.759Z,4.83
2018-12-03T11:30:49.575Z,4.63
2018-12-03T11:33:23.664Z,5.43
2018-12-03T11:35:56.511Z,6.60
2018-12-03T11:38:35.946Z,6.43
2018-12-03T11:41:06.126Z,5.53
2018-12-03T11:43:35.782Z,6.33
2018-12-03T11:46:06.429Z,6.67
2018-12-03T11:48:35.785Z,5.77
2018-12-03T11:51:05.312Z,6.07
2018-12-03T11:53:33.679Z,7.10
2018-12-03T11:56:02.948Z,9.50
2018-12-03T11:58:31.051Z,8.40
2018-12-03T12:03:42.877Z,9.57
2018-12-03T12:06:12.264Z,6.90
2018-12-03T12:08:42.386Z,6.30
2018-12-03T12:11:14.732Z,4.00
2018-12-03T12:13:43.529Z,3.20
2018-12-03T12:16:12.260Z,3.10
2018-12-03T12:18:47.203Z,2.57
2018-12-03T12:21:16.055Z,2.20
2018-12-03T12:23:46.282Z,2.40
2018-12-03T12:26:15.541Z,2.53
2018-12-03T12:28:47.435Z,2.83
2018-12-03T12:31:17.740Z,2.10
2018-12-03T12:33:46.268Z,1.70
2018-12-03T12:36:15.723Z,1.70
2018-12-03T12:38:46.697Z,2.10
2018-12-03T12:41:17.807Z,2.30
2018-12-03T12:43:50.760Z,2.40
2018-12-03T12:46:22.599Z,2.30
2018-12-03T12:48:52.603Z,2.60
2018-12-03T12:51:22.815Z,2.63
2018-12-03T12:53:51.873Z,4.00
2018-12-03T12:56:21.915Z,2.97
2018-12-03T12:58:51.030Z,3.17
2018-12-03T13:01:20.804Z,3.13
2018-12-03T13:03:51.807Z,2.67
2018-12-03T13:06:25.294Z,2.07
2018-12-03T13:08:57.506Z,2.70
2018-12-03T13:11:26.338Z,2.30
2018-12-03T13:13:57.818Z,1.77
2018-12-03T13:16:28.394Z,1.80
2018-12-03T13:18:59.743Z,1.93
2018-12-03T13:21:32.204Z,2.20
2018-12-03T13:24:01.442Z,2.97
2018-12-03T13:26:32.781Z,1.30
2018-12-03T13:29:03.567Z,1.50
2018-12-03T13:31:33.711Z,1.50
2018-12-03T13:34:02.218Z,1.40
2018-12-03T13:36:31.278Z,2.13
2018-12-03T13:39:01.231Z,1.70
2018-12-03T13:44:14.059Z,1.40
2018-12-03T13:46:43.244Z,5.30
2018-12-03T13:49:13.786Z,7.40
2018-12-03T13:51:43.099Z,24.00
2018-12-03T13:54:14.347Z,8.17
2018-12-03T13:56:44.007Z,4.20
2018-12-03T13:59:14.010Z,4.20
2018-12-03T14:01:42.452Z,1.80
2018-12-03T14:04:13.730Z,2.00
2018-12-03T14:06:50.578Z,2.53
2018-12-03T14:09:31.297Z,2.00
2018-12-03T14:12:10.119Z,2.30
2018-12-03T14:14:53.189Z,4.00
2018-12-03T14:17:29.041Z,1.80
2018-12-03T14:19:59.381Z,2.30
2018-12-03T14:22:46.064Z,2.90
2018-12-03T14:25:15.702Z,2.50
2018-12-03T14:27:45.012Z,3.40
2018-12-03T14:30:13.946Z,3.90
2018-12-03T14:32:43.837Z,7.57
2018-12-03T14:35:13.497Z,12.87
2018-12-03T14:37:42.407Z,8.83
2018-12-03T14:40:12.284Z,8.80
2018-12-03T14:42:42.108Z,8.70
2018-12-03T14:45:11.647Z,6.20
2018-12-03T14:47:41.091Z,6.60
2018-12-03T14:50:10.711Z,6.37
2018-12-03T14:52:45.250Z,4.67
2018-12-03T14:55:14.384Z,3.00
2018-12-03T14:57:43.783Z,2.60
2018-12-03T15:00:15.931Z,2.63
2018-12-03T15:02:45.931Z,2.00
2018-12-03T15:05:15.637Z,2.17
2018-12-03T15:07:54.873Z,2.10
2018-12-03T15:10:24.595Z,4.27
2018-12-03T15:12:55.911Z,9.60
2018-12-03T15:15:25.375Z,7.17
2018-12-03T15:17:55.893Z,5.37
2018-12-03T15:20:25.162Z,6.47
2018-12-03T15:25:30.954Z,12.37
2018-12-03T15:27:59.721Z,6.10
2018-12-03T15:30:31.265Z,6.03
2018-12-03T15:33:00.653Z,11.80
2018-12-03T15:35:30.244Z,13.10
2018-12-03T15:38:08.715Z,12.70
2018-12-03T15:40:43.112Z,8.60
2018-12-03T15:43:12.222Z,7.23
2018-12-03T15:45:43.597Z,7.50
2018-12-03T15:48:12.039Z,9.70
2018-12-03T15:50:41.467Z,7.43
2018-12-03T15:53:27.266Z,8.40
2018-12-03T15:55:57.655Z,5.50
2018-12-03T15:58:28.476Z,5.10
2018-12-03T16:00:57.532Z,5.80
2018-12-03T16:03:26.384Z,6.13
2018-12-03T16:05:59.791Z,5.83
2018-12-03T16:08:36.674Z,5.67
2018-12-03T16:11:08.622Z,6.83
2018-12-03T16:13:39.446Z,5.80
2018-12-03T16:16:09.410Z,6.50
2018-12-03T16:18:39.987Z,7.87
2018-12-03T16:21:09.611Z,10.00
2018-12-03T16:23:38.213Z,11.63
2018-12-03T16:26:08.366Z,9.40
2018-12-03T16:28:38.517Z,10.20
2018-12-03T16:31:06.871Z,11.93
2018-12-03T16:33:35.753Z,10.20
2018-12-03T16:36:05.610Z,10.50
2018-12-03T16:41:17.823Z,9.40
2018-12-03T16:43:47.253Z,10.60
2018-12-03T16:46:17.924Z,9.20
2018-12-03T16:48:50.740Z,10.07
2018-12-03T16:51:19.102Z,10.57
2018-12-03T16:56:27.568Z,9.30
2018-12-03T16:58:57.908Z,10.90
2018-12-03T17:01:27.778Z,9.37
2018-12-03T17:03:57.201Z,10.43
2018-12-03T17:06:29.536Z,10.67
2018-12-03T17:09:08.397Z,11.90
2018-12-03T17:11:37.855Z,12.80
2018-12-03T17:14:09.965Z,11.90
2018-12-03T17:16:39.062Z,10.60
2018-12-03T17:19:08.675Z,11.93
2018-12-03T17:22:09.571Z,9.87
2018-12-03T17:24:41.092Z,11.87
2018-12-03T17:27:10.943Z,13.30
2018-12-03T17:29:40.338Z,13.27
2018-12-03T17:34:50.819Z,13.63
2018-12-03T17:37:23.222Z,13.23
2018-12-03T17:39:59.453Z,15.80
2018-12-03T17:42:28.026Z,15.90
2018-12-03T17:44:57.811Z,15.53
2018-12-03T17:47:34.022Z,15.23
2018-12-03T17:50:07.348Z,15.30
2018-12-03T17:55:26.838Z,19.47
2018-12-03T17:58:00.128Z,16.93
2018-12-03T18:00:32.196Z,15.57
2018-12-03T18:03:08.484Z,13.83
2018-12-03T18:05:39.821Z,11.53
2018-12-03T18:08:15.247Z,16.97
2018-12-03T18:10:44.633Z,13.30
2018-12-03T18:13:14.975Z,13.57
2018-12-03T18:15:43.739Z,14.20
2018-12-03T18:18:17.103Z,11.80
2018-12-03T18:20:45.646Z,12.00
2018-12-03T18:23:17.954Z,9.83
2018-12-03T18:25:48.838Z,12.93
2018-12-03T18:28:20.516Z,9.67
2018-12-03T18:30:51.178Z,10.30
2018-12-03T18:33:28.741Z,10.77
2018-12-03T18:38:33.589Z,14.60
2018-12-03T18:41:03.507Z,11.23
2018-12-03T18:43:35.017Z,12.33
2018-12-03T18:46:12.545Z,13.20
2018-12-03T18:48:43.654Z,14.70
2018-12-03T18:51:13.973Z,18.00
2018-12-03T18:54:00.621Z,17.90
2018-12-03T18:59:29.564Z,11.90
2018-12-03T19:01:59.576Z,14.60
2018-12-03T19:04:29.611Z,15.43
2018-12-03T19:06:58.650Z,16.67
2018-12-03T19:09:28.596Z,13.00
2018-12-03T19:14:39.647Z,15.13
2018-12-03T19:17:19.399Z,15.17
2018-12-03T19:19:49.320Z,16.83
2018-12-03T19:22:24.059Z,14.80
2018-12-03T19:24:53.662Z,17.80
2018-12-03T19:30:05.327Z,15.83
2018-12-03T19:32:34.629Z,13.77
2018-12-03T19:35:10.959Z,15.20
2018-12-03T19:37:46.879Z,13.77
2018-12-03T19:40:16.430Z,19.70
2018-12-03T19:42:51.290Z,28.63
2018-12-03T19:45:19.860Z,19.80
2018-12-03T19:50:29.092Z,21.30
2018-12-03T19:55:48.646Z,29.17
2018-12-03T19:58:33.206Z,20.83
2018-12-03T20:01:03.732Z,23.03
2018-12-03T20:03:37.020Z,19.60
2018-12-03T20:06:20.983Z,22.50
2018-12-03T20:08:59.617Z,16.33
2018-12-03T20:11:28.810Z,18.23
2018-12-03T20:14:01.807Z,18.27
2018-12-03T20:16:41.919Z,23.77
2018-12-03T20:19:13.998Z,32.87
2018-12-03T20:21:52.550Z,24.97
2018-12-03T20:24:24.134Z,20.30
2018-12-03T20:27:07.480Z,18.17
2018-12-03T20:29:47.443Z,21.03
2018-12-03T20:35:15.814Z,18.30
2018-12-03T20:38:31.946Z,19.70
2018-12-03T20:41:07.524Z,22.40
2018-12-03T20:43:42.211Z,26.63
2018-12-03T20:46:57.608Z,24.83
2018-12-03T20:49:42.562Z,29.00
2018-12-03T20:52:30.191Z,31.10
2018-12-03T20:55:08.648Z,29.60
2018-12-03T20:57:39.504Z,23.07
2018-12-03T21:00:11.785Z,29.30
2018-12-03T21:02:47.984Z,33.70
2018-12-03T21:05:28.542Z,29.97
2018-12-03T21:08:04.150Z,19.93
2018-12-03T21:10:39.846Z,21.17
2018-12-03T21:15:46.526Z,20.30
2018-12-03T21:18:17.164Z,22.70
2018-12-03T21:20:52.777Z,26.00
2018-12-03T21:26:19.372Z,18.10
2018-12-03T21:28:49.698Z,22.33
2018-12-03T21:31:22.128Z,16.50
2018-12-03T21:33:54.568Z,22.67
2018-12-03T21:36:26.233Z,26.73
2018-12-03T21:38:57.166Z,19.13
2018-12-03T21:41:30.160Z,18.63
2018-12-03T21:43:59.911Z,23.60
2018-12-03T21:46:32.200Z,20.73
2018-12-03T21:49:06.512Z,19.90
2018-12-03T21:51:37.972Z,21.10
2018-12-03T21:54:11.362Z,20.97
2018-12-03T21:56:48.062Z,37.40
2018-12-03T21:59:18.316Z,25.87
2018-12-03T22:01:48.143Z,26.93
2018-12-03T22:04:17.531Z,45.40
2018-12-03T22:06:49.379Z,50.43
2018-12-03T22:09:17.893Z,44.83
2018-12-03T22:11:46.086Z,33.47
2018-12-03T22:14:17.273Z,44.83
2018-12-03T22:16:45.670Z,39.77
2018-12-03T22:19:16.404Z,37.80
2018-12-03T22:21:45.379Z,42.67
2018-12-03T22:24:19.195Z,27.97
2018-12-03T22:26:48.341Z,18.27
2018-12-03T22:29:17.922Z,17.70
2018-12-03T22:31:46.884Z,15.90
2018-12-03T22:34:15.070Z,15.90
2018-12-03T22:36:44.628Z,27.90
2018-12-03T22:39:23.969Z,18.17
2018-12-03T22:41:52.696Z,26.23
2018-12-03T22:44:24.047Z,28.10
2018-12-03T22:46:52.123Z,17.77
2018-12-03T22:49:23.640Z,18.70
2018-12-03T22:51:52.211Z,19.77
2018-12-03T22:54:22.219Z,17.53
2018-12-03T22:56:51.740Z,19.80
2018-12-03T22:59:21.777Z,17.30
2018-12-03T23:01:50.298Z,21.83
2018-12-03T23:04:20.387Z,16.30
2018-12-03T23:06:49.994Z,16.73
2018-12-03T23:09:23.448Z,20.30
2018-12-03T23:11:54.327Z,20.70
2018-12-03T23:14:23.078Z,20.63
2018-12-03T23:16:52.698Z,22.30
2018-12-03T23:19:20.681Z,23.40
2018-12-03T23:21:50.171Z,26.73
2018-12-03T23:24:18.766Z,21.17
2018-12-03T23:26:48.807Z,22.30
2018-12-03T23:29:18.068Z,24.77
2018-12-03T23:31:47.153Z,23.63
2018-12-03T23:34:15.735Z,25.27
2018-12-03T23:36:43.902Z,18.63
2018-12-03T23:39:13.247Z,19.27
2018-12-03T23:41:42.886Z,21.43
2018-12-03T23:44:11.544Z,18.20
2018-12-03T23:46:39.929Z,19.07
2018-12-03T23:49:08.464Z,19.77
2018-12-03T23:51:37.281Z,20.57
2018-12-03T23:54:05.425Z,17.53
2018-12-03T23:56:33.783Z,21.73
2018-12-03T23:59:01.962Z,25.37
